Time;durP1;ratioP1;P1;durP2;ratioP2;P2;SDS_P1;SDS_P2;PMS_P1;PMS_P2;Temp;Humidity;BMP_temperature;BMP_pressure;BME280_temperature;BME280_humidity;BME280_pressure;Samples;Min_cycle;Max_cycle;Signal;HPM_P1;HPM_P2
2023/01/06 00:01:25;;;;;;;0.70;0.70;;;12.20;99.90;;;;;;5087964;28;20297;-63
2023/01/06 00:03:57;;;;;;;0.80;0.80;;;12.20;99.90;;;;;;5081380;28;20231;-63
2023/01/06 00:06:26;;;;;;;1.00;1.00;;;12.20;99.90;;;;;;5072926;28;20219;-63
2023/01/06 00:08:53;;;;;;;0.93;0.93;;;12.20;99.90;;;;;;5078854;28;20194;-63
2023/01/06 00:11:20;;;;;;;0.90;0.90;;;12.10;99.90;;;;;;5090533;28;20578;-62
2023/01/06 00:13:47;;;;;;;0.70;0.70;;;12.10;99.90;;;;;;5076295;28;20608;-62
2023/01/06 00:16:16;;;;;;;0.73;0.73;;;12.10;99.90;;;;;;5083674;28;20206;-62
2023/01/06 00:18:43;;;;;;;0.70;0.70;;;12.10;99.90;;;;;;5089226;28;20222;-63
2023/01/06 00:21:13;;;;;;;0.80;0.80;;;12.10;99.90;;;;;;5089612;28;20230;-62
2023/01/06 00:23:40;;;;;;;1.07;0.60;;;12.10;99.90;;;;;;5101263;28;20294;-63
2023/01/06 00:26:09;;;;;;;0.90;0.90;;;12.00;99.90;;;;;;5112924;28;20218;-61
2023/01/06 00:28:36;;;;;;;0.70;0.70;;;12.00;99.90;;;;;;5107317;28;20198;-63
2023/01/06 00:31:07;;;;;;;0.83;0.83;;;12.00;99.90;;;;;;5110089;28;20199;-65
2023/01/06 00:33:33;;;;;;;0.68;0.68;;;12.10;99.90;;;;;;5093018;28;20222;-63
2023/01/06 00:36:00;;;;;;;0.60;0.60;;;12.00;99.90;;;;;;5082710;28;20211;-61
2023/01/06 00:38:29;;;;;;;0.87;0.87;;;11.90;99.90;;;;;;5074090;28;20206;-63
2023/01/06 00:40:56;;;;;;;1.00;1.00;;;11.90;99.90;;;;;;5082967;28;20203;-64
2023/01/06 00:43:23;;;;;;;1.00;1.00;;;11.80;99.90;;;;;;5075938;28;20230;-62
2023/01/06 00:45:50;;;;;;;0.80;0.80;;;11.90;99.90;;;;;;5073473;28;20218;-63
2023/01/06 00:48:17;;;;;;;0.83;0.83;;;11.90;99.90;;;;;;5085062;28;20199;-62
2023/01/06 00:50:44;;;;;;;0.90;0.90;;;11.90;99.90;;;;;;5084452;28;20199;-63
2023/01/06 00:53:11;;;;;;;0.80;0.80;;;11.90;99.90;;;;;;5088012;28;20214;-64
2023/01/06 00:55:39;;;;;;;0.80;0.80;;;11.90;99.90;;;;;;5086137;28;20599;-63
2023/01/06 00:58:06;;;;;;;0.95;0.95;;;11.90;99.90;;;;;;5087813;28;20198;-63
2023/01/06 01:00:33;;;;;;;0.80;0.80;;;11.90;99.90;;;;;;5078449;28;20259;-63
2023/01/06 01:03:00;;;;;;;0.90;0.90;;;11.90;99.90;;;;;;5085291;28;20223;-63
2023/01/06 01:05:26;;;;;;;0.80;0.80;;;11.80;99.90;;;;;;5075475;28;20297;-63
2023/01/06 01:07:53;;;;;;;0.60;0.60;;;11.80;99.90;;;;;;5075487;28;20203;-63
2023/01/06 01:10:20;;;;;;;1.00;0.90;;;11.80;99.90;;;;;;5088897;28;20205;-63
2023/01/06 01:12:49;;;;;;;0.53;0.53;;;11.80;99.90;;;;;;5076018;28;20227;-63
2023/01/06 01:15:16;;;;;;;0.80;0.80;;;11.70;99.90;;;;;;5081988;28;20199;-63
2023/01/06 01:17:42;;;;;;;0.70;0.70;;;11.60;99.90;;;;;;5077226;28;20207;-63
2023/01/06 01:20:10;;;;;;;0.80;0.80;;;11.70;99.90;;;;;;5087732;28;20681;-62
2023/01/06 01:22:37;;;;;;;1.07;0.90;;;11.60;99.90;;;;;;5075869;28;20225;-62
2023/01/06 01:25:04;;;;;;;0.80;0.80;;;11.60;99.90;;;;;;5081868;28;20661;-63
2023/01/06 01:27:32;;;;;;;0.70;0.70;;;11.60;99.90;;;;;;5088754;28;20218;-63
2023/01/06 01:30:00;;;;;;;0.63;0.63;;;11.60;99.90;;;;;;5074738;28;20203;-64
2023/01/06 01:32:27;;;;;;;0.87;0.87;;;11.60;99.90;;;;;;5085101;28;20283;-63
2023/01/06 01:34:54;;;;;;;0.70;0.70;;;11.60;99.90;;;;;;5072855;28;20205;-62
2023/01/06 01:37:21;;;;;;;0.80;0.80;;;11.50;99.90;;;;;;5072257;28;20211;-62
2023/01/06 01:39:48;;;;;;;0.87;0.87;;;11.50;99.90;;;;;;5073592;28;20230;-62
2023/01/06 01:42:19;;;;;;;0.70;0.70;;;11.50;99.90;;;;;;5072122;28;20285;-62
2023/01/06 01:45:02;;;;;;;0.90;0.90;;;11.50;99.90;;;;;;5074100;28;20235;-63
2023/01/06 01:47:45;;;;;;;0.70;0.70;;;11.50;99.90;;;;;;5083869;28;20736;-62
2023/01/06 01:50:19;;;;;;;0.60;0.60;;;11.50;99.90;;;;;;5078348;28;20588;-63
2023/01/06 01:52:49;;;;;;;0.60;0.60;;;11.40;99.90;;;;;;5083372;28;20237;-62
2023/01/06 01:55:18;;;;;;;0.50;0.50;;;11.30;99.90;;;;;;5075505;28;20309;-62
2023/01/06 01:57:50;;;;;;;0.68;0.68;;;11.30;99.90;;;;;;5090138;28;20297;-62
2023/01/06 02:00:19;;;;;;;0.83;0.83;;;11.30;99.90;;;;;;5087956;28;20311;-63
2023/01/06 02:02:46;;;;;;;0.60;0.60;;;11.30;99.90;;;;;;5089085;28;20310;-62
2023/01/06 02:05:18;;;;;;;0.60;0.60;;;11.30;99.90;;;;;;5093392;28;20209;-63
2023/01/06 02:07:45;;;;;;;0.60;0.60;;;11.40;99.90;;;;;;5085971;28;20195;-64
2023/01/06 02:10:14;;;;;;;0.70;0.70;;;11.30;99.90;;;;;;5090140;28;20205;-63
2023/01/06 02:12:42;;;;;;;0.70;0.70;;;11.30;99.90;;;;;;5078655;28;20233;-62
2023/01/06 02:15:19;;;;;;;0.50;0.50;;;11.30;99.90;;;;;;5088249;28;20222;-63
2023/01/06 02:18:02;;;;;;;0.40;0.40;;;11.20;99.90;;;;;;5086946;28;20206;-63
2023/01/06 02:20:46;;;;;;;0.57;0.57;;;11.20;99.90;;;;;;5079053;28;20226;-64
2023/01/06 02:23:50;;;;;;;0.77;0.77;;;11.10;99.90;;;;;;5091737;28;20526;-64
2023/01/06 02:27:02;;;;;;;1.13;0.80;;;11.20;99.90;;;;;;5078807;28;20580;-63
2023/01/06 02:30:12;;;;;;;0.60;0.60;;;11.30;99.90;;;;;;5091213;28;20197;-63
2023/01/06 02:32:53;;;;;;;0.60;0.60;;;11.30;99.90;;;;;;5080757;28;20219;-62
2023/01/06 02:35:39;;;;;;;0.43;0.43;;;11.30;99.90;;;;;;5090954;28;20692;-64
2023/01/06 02:38:15;;;;;;;0.50;0.50;;;11.20;99.90;;;;;;5088375;28;20213;-62
2023/01/06 02:40:53;;;;;;;0.60;0.60;;;11.20;99.90;;;;;;5077343;28;20222;-62
2023/01/06 02:43:28;;;;;;;0.73;0.70;;;11.10;99.90;;;;;;5087196;28;20254;-61
2023/01/06 02:46:07;;;;;;;0.73;0.73;;;11.10;99.90;;;;;;5090873;28;20565;-63
2023/01/06 02:48:44;;;;;;;0.80;0.80;;;11.00;99.90;;;;;;5070033;28;20286;-63
2023/01/06 02:51:17;;;;;;;1.17;0.80;;;11.00;99.90;;;;;;5075568;28;20198;-62
2023/01/06 02:53:55;;;;;;;0.90;0.90;;;11.10;99.90;;;;;;5079525;28;20241;-64
2023/01/06 02:56:26;;;;;;;1.07;1.00;;;11.10;99.90;;;;;;5087637;28;20209;-64
2023/01/06 02:58:59;;;;;;;1.20;1.10;;;11.10;99.90;;;;;;5087739;28;20205;-63
2023/01/06 03:01:31;;;;;;;1.00;1.00;;;11.10;99.90;;;;;;5085371;28;20313;-63
2023/01/06 03:04:03;;;;;;;1.30;1.30;;;11.20;99.90;;;;;;5091607;28;20230;-62
2023/01/06 03:06:31;;;;;;;1.00;1.00;;;11.20;99.90;;;;;;5089105;28;20199;-63
2023/01/06 03:09:00;;;;;;;1.40;1.30;;;11.20;99.90;;;;;;5091159;28;20209;-63
2023/01/06 03:11:30;;;;;;;1.10;1.10;;;11.20;99.90;;;;;;5089248;28;20206;-63
2023/01/06 03:14:02;;;;;;;1.50;1.40;;;11.30;99.90;;;;;;5088320;28;20198;-63
2023/01/06 03:16:29;;;;;;;1.20;1.20;;;11.30;99.90;;;;;;5089228;28;20258;-62
2023/01/06 03:18:57;;;;;;;2.20;1.70;;;11.30;99.90;;;;;;5086733;28;20284;-62
2023/01/06 03:21:31;;;;;;;1.40;1.40;;;11.30;99.90;;;;;;5090945;28;20222;-63
2023/01/06 03:23:58;;;;;;;1.27;1.27;;;11.30;99.90;;;;;;5080653;28;20615;-63
2023/01/06 03:26:26;;;;;;;0.90;0.90;;;11.40;99.90;;;;;;5082407;28;20207;-62
2023/01/06 03:28:53;;;;;;;1.13;1.13;;;11.40;99.90;;;;;;5083101;28;20213;-63
2023/01/06 03:31:26;;;;;;;1.17;1.13;;;11.50;99.90;;;;;;5082225;28;20200;-62
2023/01/06 03:34:01;;;;;;;1.13;1.13;;;11.50;99.90;;;;;;5089541;28;20222;-62
2023/01/06 03:36:36;;;;;;;1.00;1.00;;;11.50;99.90;;;;;;5085653;28;20292;-63
2023/01/06 03:39:12;;;;;;;1.20;1.10;;;11.50;99.90;;;;;;5092050;28;20248;-63
2023/01/06 03:44:38;;;;;;;0.87;0.87;;;11.60;99.90;;;;;;5080921;28;20213;-62
2023/01/06 03:47:14;;;;;;;0.60;0.60;;;11.50;99.90;;;;;;5084014;28;20802;-64
2023/01/06 03:49:51;;;;;;;0.80;0.80;;;11.50;99.90;;;;;;5083669;28;20232;-62
2023/01/06 03:52:24;;;;;;;0.82;0.82;;;11.40;99.90;;;;;;5081129;28;20230;-63
2023/01/06 03:54:59;;;;;;;0.70;0.70;;;11.50;99.90;;;;;;5081081;28;20841;-63
2023/01/06 03:57:31;;;;;;;0.60;0.60;;;11.50;99.90;;;;;;5087773;28;20240;-62
2023/01/06 04:00:03;;;;;;;0.57;0.57;;;11.40;99.90;;;;;;5081032;28;20708;-63
2023/01/06 04:02:30;;;;;;;0.60;0.60;;;11.40;99.90;;;;;;5085456;28;20223;-62
2023/01/06 04:05:04;;;;;;;0.80;0.80;;;11.40;99.90;;;;;;5079036;28;20263;-62
2023/01/06 04:07:32;;;;;;;0.70;0.70;;;11.30;99.90;;;;;;5091453;28;20207;-64
2023/01/06 04:09:59;;;;;;;0.73;0.73;;;11.30;99.90;;;;;;5089673;28;20195;-64
2023/01/06 04:15:09;;;;;;;0.60;0.60;;;11.30;99.90;;;;;;5071322;28;20199;-63
2023/01/06 04:17:37;;;;;;;1.20;0.93;;;11.30;99.90;;;;;;5085503;28;20202;-63
2023/01/06 04:20:04;;;;;;;0.80;0.80;;;11.40;99.90;;;;;;5074756;28;20820;-64
2023/01/06 04:22:32;;;;;;;0.63;0.63;;;11.40;99.90;;;;;;5088278;28;20305;-63
2023/01/06 04:24:59;;;;;;;0.75;0.75;;;11.40;99.90;;;;;;5087517;28;20211;-63
2023/01/06 04:27:26;;;;;;;0.77;0.77;;;11.40;99.90;;;;;;5089577;28;20203;-64
2023/01/06 04:29:53;;;;;;;0.60;0.60;;;11.50;99.90;;;;;;5086117;28;20290;-62
2023/01/06 04:32:20;;;;;;;0.77;0.77;;;11.70;99.90;;;;;;5087970;28;20227;-63
2023/01/06 04:34:47;;;;;;;0.60;0.60;;;11.60;99.90;;;;;;5090311;28;20201;-64
2023/01/06 04:37:14;;;;;;;0.70;0.70;;;11.70;99.90;;;;;;5087041;28;20199;-64
2023/01/06 04:39:42;;;;;;;0.80;0.80;;;11.70;99.90;;;;;;5091066;28;20210;-62
2023/01/06 04:42:09;;;;;;;0.60;0.60;;;11.70;99.90;;;;;;5086268;28;20229;-62
2023/01/06 04:44:36;;;;;;;0.60;0.60;;;11.80;99.90;;;;;;5088874;28;20646;-62
2023/01/06 04:47:02;;;;;;;0.63;0.63;;;11.80;99.90;;;;;;5085891;28;20722;-61
2023/01/06 04:49:29;;;;;;;0.77;0.77;;;11.80;99.90;;;;;;5084888;28;20199;-62
2023/01/06 04:51:56;;;;;;;0.77;0.77;;;11.70;99.90;;;;;;5085969;28;20577;-62
2023/01/06 04:54:23;;;;;;;0.70;0.70;;;11.60;99.90;;;;;;5072568;28;20218;-62
2023/01/06 04:56:51;;;;;;;0.80;0.80;;;11.60;99.90;;;;;;5090586;28;20240;-63
2023/01/06 04:59:18;;;;;;;0.90;0.90;;;11.50;99.90;;;;;;5084635;28;20226;-62
2023/01/06 05:01:45;;;;;;;0.90;0.90;;;11.40;99.90;;;;;;5078710;28;20306;-63
2023/01/06 05:04:12;;;;;;;0.50;0.50;;;11.40;99.90;;;;;;5080579;28;20195;-61
2023/01/06 05:06:39;;;;;;;0.80;0.80;;;11.50;99.90;;;;;;5085870;28;20204;-63
2023/01/06 05:09:06;;;;;;;0.90;0.90;;;11.40;99.90;;;;;;5088899;28;20214;-64
2023/01/06 05:11:33;;;;;;;0.80;0.80;;;11.50;99.90;;;;;;5086199;28;20196;-63
2023/01/06 05:14:01;;;;;;;0.90;0.85;;;11.50;99.90;;;;;;5086244;28;20202;-62
2023/01/06 05:16:29;;;;;;;0.70;0.70;;;11.50;99.90;;;;;;5086924;28;20204;-63
2023/01/06 05:18:57;;;;;;;0.73;0.73;;;11.50;99.90;;;;;;5076527;28;20573;-63
2023/01/06 05:21:25;;;;;;;0.73;0.73;;;11.40;99.90;;;;;;5089148;28;20250;-62
2023/01/06 05:23:53;;;;;;;1.00;1.00;;;11.40;99.90;;;;;;5084989;28;20233;-63
2023/01/06 05:26:22;;;;;;;0.77;0.77;;;11.40;99.90;;;;;;5088718;28;20206;-66
2023/01/06 05:28:49;;;;;;;0.60;0.60;;;11.40;99.90;;;;;;5085177;28;20204;-63
2023/01/06 05:31:17;;;;;;;0.70;0.70;;;11.50;99.90;;;;;;5088169;28;20199;-62
2023/01/06 05:33:44;;;;;;;0.70;0.70;;;11.40;99.90;;;;;;5084475;28;20230;-63
2023/01/06 05:36:14;;;;;;;0.80;0.80;;;11.50;99.90;;;;;;5081574;28;20205;-63
2023/01/06 05:38:41;;;;;;;0.70;0.70;;;11.40;99.90;;;;;;5081730;28;20194;-62
2023/01/06 05:41:08;;;;;;;0.83;0.83;;;11.40;99.90;;;;;;5082154;28;20242;-63
2023/01/06 05:43:36;;;;;;;0.60;0.60;;;11.40;99.90;;;;;;5094599;28;20620;-62
2023/01/06 05:46:07;;;;;;;0.80;0.80;;;11.40;99.90;;;;;;5081599;28;20203;-62
2023/01/06 05:48:36;;;;;;;0.70;0.70;;;11.40;99.90;;;;;;5073962;28;20234;-66
2023/01/06 05:51:04;;;;;;;0.77;0.77;;;11.40;99.90;;;;;;5084488;28;20200;-61
2023/01/06 05:53:32;;;;;;;1.27;0.67;;;11.50;99.90;;;;;;5089094;28;20228;-64
2023/01/06 05:56:00;;;;;;;0.60;0.60;;;11.40;99.90;;;;;;5089173;28;20194;-62
2023/01/06 05:58:27;;;;;;;0.60;0.60;;;11.50;99.90;;;;;;5085464;28;20649;-63
2023/01/06 06:00:54;;;;;;;0.50;0.50;;;11.50;99.90;;;;;;5088549;28;20218;-66
2023/01/06 06:03:21;;;;;;;0.70;0.70;;;11.60;99.90;;;;;;5079177;28;20231;-63
2023/01/06 06:05:50;;;;;;;0.33;0.33;;;11.60;99.90;;;;;;5090548;28;20201;-62
2023/01/06 06:08:16;;;;;;;0.60;0.60;;;11.60;99.90;;;;;;5085583;28;20276;-63
2023/01/06 06:10:43;;;;;;;0.70;0.70;;;11.70;99.90;;;;;;5089995;28;20214;-62
2023/01/06 06:13:10;;;;;;;0.80;0.80;;;11.70;99.90;;;;;;5085204;28;20591;-63
2023/01/06 06:15:37;;;;;;;0.70;0.70;;;11.70;99.90;;;;;;5091711;28;20208;-62
2023/01/06 06:18:04;;;;;;;0.57;0.57;;;11.80;99.90;;;;;;5087259;28;20242;-62
2023/01/06 06:20:31;;;;;;;0.50;0.50;;;11.80;99.90;;;;;;5092833;28;20222;-63
2023/01/06 06:22:59;;;;;;;0.57;0.57;;;11.80;99.90;;;;;;5092108;28;20574;-63
2023/01/06 06:25:28;;;;;;;0.40;0.40;;;11.80;99.90;;;;;;5087276;28;20290;-63
2023/01/06 06:27:58;;;;;;;0.30;0.30;;;11.90;99.90;;;;;;5093085;28;20290;-63
2023/01/06 06:30:25;;;;;;;0.30;0.30;;;11.90;99.90;;;;;;5085366;28;20243;-64
2023/01/06 06:32:51;;;;;;;0.47;0.47;;;12.00;99.90;;;;;;5091989;28;20510;-62
2023/01/06 06:35:18;;;;;;;0.40;0.40;;;12.00;99.90;;;;;;5082382;28;20203;-62
2023/01/06 06:37:45;;;;;;;0.40;0.40;;;12.00;99.90;;;;;;5090766;28;20203;-64
2023/01/06 06:40:13;;;;;;;0.50;0.50;;;12.00;99.90;;;;;;5091728;28;20203;-63
2023/01/06 06:42:40;;;;;;;0.30;0.30;;;12.00;99.90;;;;;;5087201;28;20592;-63
2023/01/06 06:45:08;;;;;;;0.40;0.40;;;12.10;99.90;;;;;;5092079;28;20256;-64
2023/01/06 06:47:35;;;;;;;0.30;0.30;;;12.10;99.90;;;;;;5085862;28;20203;-64
2023/01/06 06:50:02;;;;;;;0.30;0.30;;;12.10;99.90;;;;;;5092614;28;20213;-64
2023/01/06 06:52:29;;;;;;;0.30;0.30;;;12.10;99.90;;;;;;5082449;28;20306;-63
2023/01/06 06:54:55;;;;;;;0.40;0.40;;;12.20;99.90;;;;;;5082231;28;20641;-63
2023/01/06 06:57:24;;;;;;;0.20;0.20;;;12.20;99.90;;;;;;5090004;28;20210;-63
2023/01/06 06:59:50;;;;;;;0.37;0.37;;;12.20;99.90;;;;;;5089515;28;20267;-63
2023/01/06 07:02:17;;;;;;;0.30;0.30;;;12.20;99.90;;;;;;5090702;28;20238;-63
2023/01/06 07:04:44;;;;;;;0.40;0.40;;;12.20;99.90;;;;;;5088673;28;20285;-64
2023/01/06 07:07:11;;;;;;;0.37;0.37;;;12.20;99.90;;;;;;5088402;28;20198;-63
2023/01/06 07:09:38;;;;;;;0.30;0.30;;;12.20;99.90;;;;;;5079190;28;20195;-63
2023/01/06 07:12:05;;;;;;;0.57;0.57;;;12.20;99.90;;;;;;5080118;28;20222;-62
2023/01/06 07:14:33;;;;;;;0.53;0.53;;;12.20;99.90;;;;;;5075444;28;20281;-63
2023/01/06 07:17:01;;;;;;;0.40;0.40;;;12.10;99.90;;;;;;5084449;28;20677;-63
2023/01/06 07:19:28;;;;;;;0.30;0.30;;;12.10;99.90;;;;;;5083926;28;20198;-64
2023/01/06 07:21:55;;;;;;;0.50;0.50;;;12.10;99.90;;;;;;5092193;28;20222;-62
2023/01/06 07:24:22;;;;;;;0.50;0.50;;;12.00;99.90;;;;;;5091484;28;20670;-63
2023/01/06 07:26:49;;;;;;;0.60;0.60;;;11.90;99.90;;;;;;5108436;28;20203;-62
2023/01/06 07:29:16;;;;;;;0.50;0.50;;;11.90;99.90;;;;;;5094929;28;20696;-63
2023/01/06 07:31:44;;;;;;;0.40;0.40;;;11.90;99.90;;;;;;5091264;28;20680;-62
2023/01/06 07:34:11;;;;;;;0.40;0.40;;;11.80;99.90;;;;;;5086074;28;20199;-63
2023/01/06 07:36:37;;;;;;;0.70;0.70;;;11.90;99.90;;;;;;5088925;28;20654;-63
2023/01/06 07:39:04;;;;;;;0.60;0.60;;;11.90;99.90;;;;;;5089810;28;20266;-62
2023/01/06 07:41:32;;;;;;;0.60;0.60;;;12.10;99.90;;;;;;5075854;28;20344;-62
2023/01/06 07:43:59;;;;;;;0.50;0.50;;;12.00;99.90;;;;;;5087134;28;20203;-62
2023/01/06 07:46:25;;;;;;;0.60;0.60;;;12.00;99.90;;;;;;5081776;28;20214;-62
2023/01/06 07:48:54;;;;;;;0.60;0.60;;;12.00;99.90;;;;;;5096419;28;20256;-63
2023/01/06 07:51:21;;;;;;;0.40;0.40;;;11.90;99.90;;;;;;5090077;28;20205;-63
2023/01/06 07:53:48;;;;;;;0.50;0.50;;;11.90;99.90;;;;;;5090096;28;20385;-62
2023/01/06 07:56:14;;;;;;;0.50;0.50;;;11.90;99.90;;;;;;5091262;28;20289;-62
2023/01/06 07:58:41;;;;;;;0.30;0.30;;;12.00;99.90;;;;;;5092168;28;20203;-64
2023/01/06 08:01:09;;;;;;;0.40;0.40;;;12.00;99.90;;;;;;5090620;28;20620;-63
2023/01/06 08:03:36;;;;;;;0.50;0.50;;;12.00;99.90;;;;;;5091254;28;20778;-63
2023/01/06 08:06:08;;;;;;;0.50;0.50;;;12.00;99.90;;;;;;5093899;28;20199;-63
2023/01/06 08:08:37;;;;;;;0.50;0.50;;;11.90;99.90;;;;;;5088608;28;20202;-63
2023/01/06 08:11:05;;;;;;;0.73;0.73;;;12.00;99.90;;;;;;5100158;28;20272;-63
2023/01/06 08:13:32;;;;;;;1.00;1.00;;;12.00;99.90;;;;;;5092941;28;20230;-62
2023/01/06 08:15:59;;;;;;;0.90;0.90;;;12.10;99.90;;;;;;5107811;28;20227;-62
2023/01/06 08:18:28;;;;;;;0.77;0.77;;;12.10;99.90;;;;;;5100357;28;20231;-64
2023/01/06 08:21:00;;;;;;;0.80;0.80;;;12.30;99.90;;;;;;5091669;28;20233;-63
2023/01/06 08:23:29;;;;;;;0.50;0.50;;;12.10;99.90;;;;;;5097305;28;20239;-63
2023/01/06 08:26:02;;;;;;;0.50;0.50;;;12.10;99.90;;;;;;5092578;28;20222;-63
2023/01/06 08:28:29;;;;;;;0.50;0.50;;;12.10;99.90;;;;;;5102950;28;20199;-64
2023/01/06 08:30:56;;;;;;;0.52;0.52;;;12.20;99.90;;;;;;5091616;28;20254;-63
2023/01/06 08:33:24;;;;;;;1.10;0.67;;;12.20;99.90;;;;;;5099177;28;20655;-63
2023/01/06 08:35:51;;;;;;;0.70;0.70;;;12.20;99.90;;;;;;5093877;28;20203;-62
2023/01/06 08:38:18;;;;;;;0.50;0.50;;;12.20;99.90;;;;;;5095053;28;20220;-63
2023/01/06 08:40:46;;;;;;;0.47;0.47;;;12.20;99.90;;;;;;5088472;28;20209;-62
2023/01/06 08:43:13;;;;;;;0.47;0.47;;;12.20;99.90;;;;;;5088694;28;20697;-62
2023/01/06 08:45:40;;;;;;;0.60;0.60;;;12.30;99.90;;;;;;5086995;28;20199;-64
2023/01/06 08:48:07;;;;;;;0.60;0.60;;;12.30;99.90;;;;;;5082399;28;20203;-62
2023/01/06 08:50:34;;;;;;;1.03;0.57;;;12.30;99.90;;;;;;5084057;28;20293;-63
2023/01/06 08:53:00;;;;;;;0.70;0.70;;;12.30;99.90;;;;;;5083931;28;20218;-63
2023/01/06 08:55:27;;;;;;;0.57;0.57;;;12.30;99.90;;;;;;5073620;28;20215;-63
2023/01/06 08:57:55;;;;;;;0.30;0.30;;;12.30;99.90;;;;;;5076502;28;20203;-63
2023/01/06 09:00:23;;;;;;;0.60;0.60;;;12.40;99.90;;;;;;5072827;28;20200;-63
2023/01/06 09:02:49;;;;;;;0.80;0.80;;;12.40;99.90;;;;;;5078465;28;20229;-63
2023/01/06 09:05:16;;;;;;;0.50;0.50;;;12.50;99.90;;;;;;5085752;28;20209;-64
2023/01/06 09:07:43;;;;;;;0.40;0.40;;;12.50;99.90;;;;;;5077627;28;20205;-64
2023/01/06 09:10:10;;;;;;;0.50;0.50;;;12.60;99.90;;;;;;5087510;28;20199;-64
2023/01/06 09:12:38;;;;;;;0.40;0.40;;;12.60;99.90;;;;;;5085795;28;20226;-64
2023/01/06 09:15:07;;;;;;;0.30;0.30;;;12.70;99.90;;;;;;5088239;28;20203;-63
2023/01/06 09:17:34;;;;;;;0.40;0.40;;;12.70;99.90;;;;;;5069052;28;20195;-62
2023/01/06 09:20:01;;;;;;;0.60;0.60;;;12.70;99.90;;;;;;5087116;28;20204;-64
2023/01/06 09:22:28;;;;;;;0.50;0.50;;;12.70;99.90;;;;;;5079530;28;20736;-62
2023/01/06 09:24:55;;;;;;;0.53;0.53;;;12.70;99.90;;;;;;5075176;28;20211;-63
2023/01/06 09:27:22;;;;;;;0.40;0.40;;;12.80;99.90;;;;;;5088538;28;20287;-62
2023/01/06 09:29:48;;;;;;;0.30;0.30;;;12.80;99.90;;;;;;5078519;28;20287;-62
2023/01/06 09:32:17;;;;;;;0.40;0.40;;;12.90;99.90;;;;;;5083844;28;20224;-64
2023/01/06 09:34:43;;;;;;;0.40;0.40;;;12.90;99.90;;;;;;5078672;28;20199;-62
2023/01/06 09:37:10;;;;;;;0.50;0.50;;;13.00;99.90;;;;;;5075046;28;20294;-62
2023/01/06 09:39:38;;;;;;;0.63;0.63;;;13.20;99.90;;;;;;5069141;28;20213;-62
2023/01/06 09:42:39;;;;;;;0.37;0.37;;;13.00;99.90;;;;;;5086734;28;20230;-64
2023/01/06 09:45:12;;;;;;;0.50;0.50;;;13.00;99.90;;;;;;5082912;28;20203;-64
2023/01/06 09:47:46;;;;;;;0.40;0.40;;;13.00;99.90;;;;;;5089165;28;20198;-64
2023/01/06 09:50:20;;;;;;;0.30;0.30;;;13.10;99.90;;;;;;5093225;28;20198;-64
2023/01/06 09:52:52;;;;;;;0.30;0.30;;;13.10;99.90;;;;;;5088630;28;20226;-64
2023/01/06 09:55:23;;;;;;;0.30;0.30;;;13.20;99.90;;;;;;5109228;28;20233;-64
2023/01/06 09:57:55;;;;;;;0.30;0.30;;;13.20;99.90;;;;;;5095241;28;20202;-64
2023/01/06 10:00:31;;;;;;;0.40;0.40;;;13.30;99.90;;;;;;5092972;28;20844;-64
2023/01/06 10:02:59;;;;;;;0.40;0.40;;;13.30;99.90;;;;;;5088237;28;20227;-63
2023/01/06 10:05:33;;;;;;;0.40;0.40;;;13.30;99.90;;;;;;5094298;28;20206;-63
2023/01/06 10:08:07;;;;;;;0.23;0.23;;;13.30;99.90;;;;;;5090577;28;20194;-62
2023/01/06 10:10:42;;;;;;;0.40;0.40;;;13.20;99.90;;;;;;5091654;28;20203;-63
2023/01/06 10:13:23;;;;;;;0.40;0.40;;;13.20;99.90;;;;;;5080204;28;20214;-64
2023/01/06 10:16:00;;;;;;;0.20;0.20;;;13.30;99.90;;;;;;5075384;28;20195;-64
2023/01/06 10:18:36;;;;;;;0.37;0.37;;;13.40;99.90;;;;;;5078147;28;20198;-63
2023/01/06 10:21:12;;;;;;;0.40;0.40;;;13.70;99.90;;;;;;5073732;28;20635;-64
2023/01/06 10:24:15;;;;;;;0.10;0.10;;;13.80;99.90;;;;;;5078069;28;20230;-63
2023/01/06 10:26:44;;;;;;;0.30;0.30;;;14.00;99.90;;;;;;5080070;28;20206;-63
2023/01/06 10:29:14;;;;;;;0.40;0.40;;;14.10;99.90;;;;;;5076392;28;20200;-64
2023/01/06 10:31:44;;;;;;;0.30;0.30;;;14.20;99.90;;;;;;5072940;28;20237;-63
2023/01/06 10:34:20;;;;;;;0.20;0.20;;;14.20;99.90;;;;;;5070335;28;20280;-63
2023/01/06 10:36:51;;;;;;;0.37;0.37;;;14.30;99.90;;;;;;5083124;28;20676;-64
2023/01/06 10:39:21;;;;;;;0.20;0.20;;;14.30;99.90;;;;;;5076420;28;20204;-65
2023/01/06 10:42:54;;;;;;;0.10;0.10;;;14.40;99.90;;;;;;5085952;28;20234;-62
2023/01/06 10:44:43;;;;;;;0.23;0.23;;;14.40;99.90;;;;;;5074291;28;20254;-64
2023/01/06 10:47:19;;;;;;;0.20;0.20;;;14.40;99.90;;;;;;5084490;28;20207;-62
2023/01/06 10:49:48;;;;;;;0.20;0.20;;;14.50;99.90;;;;;;5080748;28;20194;-63
2023/01/06 10:52:15;;;;;;;0.10;0.10;;;14.70;99.90;;;;;;5084021;28;20698;-62
2023/01/06 10:54:43;;;;;;;0.10;0.10;;;14.80;99.90;;;;;;5078260;28;20286;-63
2023/01/06 10:57:16;;;;;;;0.40;0.40;;;15.00;99.90;;;;;;5081511;28;20203;-63
2023/01/06 11:00:09;;;;;;;0.30;0.30;;;15.10;99.90;;;;;;5079966;28;20203;-63
2023/01/06 11:02:36;;;;;;;0.30;0.30;;;15.10;99.90;;;;;;5075696;28;20223;-62
2023/01/06 11:05:04;;;;;;;0.20;0.20;;;14.90;99.90;;;;;;5086615;28;20899;-63
2023/01/06 11:07:32;;;;;;;0.10;0.10;;;14.70;99.90;;;;;;5077126;28;20207;-64
2023/01/06 11:09:59;;;;;;;0.20;0.20;;;14.70;99.90;;;;;;5092403;28;20202;-63
2023/01/06 11:12:30;;;;;;;0.30;0.30;;;14.60;99.90;;;;;;5089244;28;20219;-63
2023/01/06 11:15:00;;;;;;;0.30;0.30;;;14.40;99.90;;;;;;5093278;28;20196;-65
2023/01/06 11:17:29;;;;;;;0.37;0.37;;;14.30;99.90;;;;;;5093722;28;20678;-64
2023/01/06 11:20:09;;;;;;;0.20;0.20;;;14.40;99.90;;;;;;5091384;28;20203;-62
2023/01/06 11:22:38;;;;;;;0.20;0.20;;;14.40;99.90;;;;;;5079609;28;20227;-63
2023/01/06 11:25:28;;;;;;;0.30;0.30;;;14.30;99.90;;;;;;5080519;28;20211;-63
2023/01/06 11:28:14;;;;;;;0.20;0.20;;;14.10;99.90;;;;;;5077125;28;20658;-63
2023/01/06 11:30:49;;;;;;;0.20;0.20;;;14.00;99.90;;;;;;5078876;28;20199;-63
2023/01/06 11:33:18;;;;;;;0.57;0.37;;;13.80;99.90;;;;;;5087012;28;20212;-63
2023/01/06 11:35:46;;;;;;;0.40;0.40;;;13.80;99.90;;;;;;5081013;28;20203;-63
2023/01/06 11:38:16;;;;;;;0.30;0.30;;;13.70;99.90;;;;;;5089198;28;20283;-62
2023/01/06 11:40:44;;;;;;;0.30;0.30;;;13.60;99.90;;;;;;5081355;28;20611;-64
2023/01/06 11:43:15;;;;;;;0.27;0.27;;;13.50;99.90;;;;;;5080707;28;20310;-64
2023/01/06 11:45:46;;;;;;;0.40;0.40;;;13.40;99.90;;;;;;5079595;28;20206;-66
2023/01/06 11:48:17;;;;;;;0.40;0.40;;;13.30;99.90;;;;;;5079918;28;20661;-63
2023/01/06 11:50:52;;;;;;;0.30;0.30;;;13.30;99.90;;;;;;5084986;28;20279;-63
2023/01/06 11:53:23;;;;;;;0.50;0.50;;;13.20;99.90;;;;;;5081489;28;20230;-63
2023/01/06 11:56:02;;;;;;;0.40;0.40;;;13.10;99.90;;;;;;5083013;28;20206;-62
2023/01/06 11:58:51;;;;;;;0.23;0.23;;;13.00;99.90;;;;;;5082927;28;20209;-61
2023/01/06 12:01:29;;;;;;;0.30;0.30;;;13.00;99.90;;;;;;5087854;28;20217;-64
2023/01/06 12:04:05;;;;;;;0.50;0.50;;;13.00;99.90;;;;;;5085796;28;20222;-62
2023/01/06 12:06:37;;;;;;;0.43;0.43;;;12.90;99.90;;;;;;5081611;28;20294;-62
2023/01/06 12:09:10;;;;;;;0.50;0.50;;;12.90;99.90;;;;;;5083508;28;20195;-64
2023/01/06 12:11:45;;;;;;;0.30;0.30;;;12.90;99.90;;;;;;5077438;28;20564;-63
2023/01/06 12:14:15;;;;;;;0.50;0.50;;;12.90;99.90;;;;;;5084531;28;20198;-63
2023/01/06 12:16:52;;;;;;;0.40;0.40;;;12.90;99.90;;;;;;5079542;28;20209;-64
2023/01/06 12:19:25;;;;;;;0.37;0.37;;;12.80;99.90;;;;;;5086596;28;20301;-64
2023/01/06 12:21:55;;;;;;;0.50;0.50;;;12.80;99.90;;;;;;5075328;28;20313;-63
2023/01/06 12:24:22;;;;;;;0.40;0.40;;;12.80;99.90;;;;;;5086240;28;20210;-63
2023/01/06 12:26:51;;;;;;;0.32;0.32;;;12.80;99.90;;;;;;5078680;28;20200;-63
2023/01/06 12:29:21;;;;;;;0.30;0.30;;;12.80;99.90;;;;;;5081286;28;20749;-63
2023/01/06 12:31:58;;;;;;;0.40;0.40;;;12.80;99.90;;;;;;5083577;28;20261;-63
2023/01/06 12:34:30;;;;;;;0.40;0.40;;;12.90;99.90;;;;;;5080759;28;20883;-63
2023/01/06 12:37:07;;;;;;;0.30;0.30;;;13.10;99.90;;;;;;5082303;28;20203;-63
2023/01/06 12:39:41;;;;;;;0.30;0.30;;;13.00;99.90;;;;;;5070157;28;20210;-62
2023/01/06 12:42:20;;;;;;;0.73;0.40;;;13.00;99.90;;;;;;5085336;28;20241;-64
2023/01/06 12:44:51;;;;;;;0.30;0.30;;;13.10;99.90;;;;;;5085471;28;20202;-64
2023/01/06 12:47:24;;;;;;;0.40;0.40;;;13.20;99.90;;;;;;5081975;28;20816;-63
2023/01/06 12:49:56;;;;;;;0.80;0.80;;;13.20;99.90;;;;;;5083032;28;20207;-62
2023/01/06 12:52:31;;;;;;;0.67;0.67;;;13.30;99.90;;;;;;5081662;28;20222;-62
2023/01/06 12:54:59;;;;;;;0.57;0.57;;;13.30;99.90;;;;;;5085288;28;20211;-64
2023/01/06 12:57:40;;;;;;;0.27;0.27;;;13.30;99.90;;;;;;5081212;28;20213;-62
2023/01/06 13:00:22;;;;;;;0.30;0.30;;;13.40;99.90;;;;;;5086780;28;20220;-63
2023/01/06 13:03:10;;;;;;;0.70;0.70;;;13.70;99.90;;;;;;5078923;28;20333;-64
2023/01/06 13:05:54;;;;;;;0.30;0.30;;;13.80;99.90;;;;;;5072500;28;20257;-63
2023/01/06 13:08:32;;;;;;;0.40;0.40;;;13.90;99.90;;;;;;5078224;28;20210;-64
2023/01/06 13:11:07;;;;;;;0.40;0.40;;;13.90;99.90;;;;;;5077921;28;20628;-64